createdAt,value
2023-03-08T00:01:55.964Z,6.43
2023-03-08T00:04:22.597Z,6.40
2023-03-08T00:06:49.130Z,6.44
2023-03-08T00:09:16.260Z,6.45
2023-03-08T00:11:43.571Z,6.46
2023-03-08T00:14:10.022Z,6.47
2023-03-08T00:16:36.853Z,6.46
2023-03-08T00:19:03.438Z,6.43
2023-03-08T00:21:30.048Z,6.45
2023-03-08T00:23:56.602Z,6.44
2023-03-08T00:26:23.131Z,6.44
2023-03-08T00:28:49.869Z,6.45
2023-03-08T00:31:16.439Z,6.42
2023-03-08T00:33:42.933Z,6.42
2023-03-08T00:36:14.694Z,6.45
2023-03-08T00:38:41.376Z,6.41
2023-03-08T00:41:08.017Z,6.41
2023-03-08T00:43:34.701Z,6.40
2023-03-08T00:46:04.137Z,6.36
2023-03-08T00:48:30.911Z,6.32
2023-03-08T00:50:57.396Z,6.30
2023-03-08T00:53:24.063Z,6.29
2023-03-08T00:55:52.631Z,6.22
2023-03-08T00:58:20.005Z,6.18
2023-03-08T01:00:47.259Z,6.15
2023-03-08T01:03:14.899Z,6.16
2023-03-08T01:05:47.170Z,6.12
2023-03-08T01:08:14.792Z,6.11
2023-03-08T01:10:47.594Z,6.10
2023-03-08T01:13:14.265Z,6.09
2023-03-08T01:15:41.046Z,6.10
2023-03-08T01:18:07.718Z,6.11
2023-03-08T01:20:35.178Z,6.09
2023-03-08T01:23:02.826Z,6.10
2023-03-08T01:25:29.772Z,6.09
2023-03-08T01:27:57.113Z,6.10
2023-03-08T01:30:24.085Z,6.10
2023-03-08T01:32:50.605Z,6.12
2023-03-08T01:35:18.044Z,6.12
2023-03-08T01:37:50.688Z,6.04
2023-03-08T01:40:17.252Z,6.07
2023-03-08T01:42:43.810Z,6.03
2023-03-08T01:45:47.769Z,5.98
2023-03-08T01:48:15.963Z,5.93
2023-03-08T01:51:15.689Z,5.87
2023-03-08T01:53:42.961Z,5.84
2023-03-08T01:56:13.410Z,5.76
2023-03-08T01:58:43.676Z,5.72
2023-03-08T02:01:10.957Z,5.64
2023-03-08T02:03:37.646Z,5.60
2023-03-08T02:06:05.890Z,5.55
2023-03-08T02:08:33.045Z,5.49
2023-03-08T02:11:01.772Z,5.43
2023-03-08T02:13:28.759Z,5.37
2023-03-08T02:15:57.158Z,5.32
2023-03-08T02:18:23.683Z,5.27
2023-03-08T02:20:50.290Z,5.21
2023-03-08T02:23:20.045Z,5.16
2023-03-08T02:25:59.708Z,5.12
2023-03-08T02:28:27.550Z,5.06
2023-03-08T02:30:55.852Z,4.98
2023-03-08T02:33:22.896Z,4.95
2023-03-08T02:35:50.481Z,4.92
2023-03-08T02:38:19.926Z,4.87
2023-03-08T02:40:46.434Z,4.82
2023-03-08T02:43:13.204Z,4.78
2023-03-08T02:45:39.743Z,4.70
2023-03-08T02:48:08.046Z,4.64
2023-03-08T02:50:34.575Z,4.60
2023-03-08T02:53:01.281Z,4.53
2023-03-08T02:55:27.780Z,4.49
2023-03-08T02:57:54.697Z,4.43
2023-03-08T03:00:21.459Z,4.39
2023-03-08T03:02:48.327Z,4.34
2023-03-08T03:05:14.830Z,4.31
2023-03-08T03:07:43.456Z,4.27
2023-03-08T03:10:15.872Z,4.23
2023-03-08T03:12:43.035Z,4.18
2023-03-08T03:15:13.618Z,4.15
2023-03-08T03:17:41.673Z,4.12
2023-03-08T03:20:09.588Z,4.10
2023-03-08T03:22:37.133Z,4.08
2023-03-08T03:25:06.240Z,4.05
2023-03-08T03:27:32.896Z,4.00
2023-03-08T03:29:59.492Z,3.98
2023-03-08T03:32:27.077Z,3.96
2023-03-08T03:34:54.157Z,3.92
2023-03-08T03:37:21.980Z,3.89
2023-03-08T03:39:49.372Z,3.87
2023-03-08T03:42:17.954Z,3.85
2023-03-08T03:44:51.810Z,3.81
2023-03-08T03:47:21.120Z,3.77
2023-03-08T03:49:52.314Z,3.74
2023-03-08T03:52:20.443Z,3.71
2023-03-08T03:54:56.729Z,3.69
2023-03-08T03:57:23.394Z,3.67
2023-03-08T03:59:50.369Z,3.66
2023-03-08T04:02:17.011Z,3.62
2023-03-08T04:04:50.616Z,3.62
2023-03-08T04:07:20.499Z,3.60
2023-03-08T04:09:55.233Z,3.60
2023-03-08T04:12:21.812Z,3.59
2023-03-08T04:14:49.035Z,3.58
2023-03-08T04:17:16.885Z,3.53
2023-03-08T04:19:52.570Z,3.55
2023-03-08T04:22:20.891Z,3.54
2023-03-08T04:25:00.760Z,3.53
2023-03-08T04:27:43.374Z,3.52
2023-03-08T04:30:11.280Z,3.49
2023-03-08T04:32:38.142Z,3.47
2023-03-08T04:35:05.883Z,3.48
2023-03-08T04:37:34.133Z,3.50
2023-03-08T04:40:06.822Z,3.51
2023-03-08T04:42:37.111Z,3.53
2023-03-08T04:45:04.258Z,3.55
2023-03-08T04:47:33.294Z,3.57
2023-03-08T04:49:59.958Z,3.60
2023-03-08T04:52:26.506Z,3.63
2023-03-08T04:54:53.161Z,3.61
2023-03-08T04:57:22.729Z,3.66
2023-03-08T04:59:51.863Z,3.68
2023-03-08T05:02:19.567Z,3.70
2023-03-08T05:04:47.167Z,3.75
2023-03-08T05:07:13.792Z,3.79
2023-03-08T05:09:42.838Z,3.83
2023-03-08T05:12:09.693Z,3.88
2023-03-08T05:14:56.054Z,3.93
2023-03-08T05:17:24.873Z,3.97
2023-03-08T05:19:51.591Z,4.00
2023-03-08T05:22:22.483Z,4.06
2023-03-08T05:24:51.030Z,4.10
2023-03-08T05:27:18.606Z,4.12
2023-03-08T05:29:46.053Z,4.14
2023-03-08T05:32:13.554Z,4.16
2023-03-08T05:34:40.578Z,4.18
2023-03-08T05:37:10.501Z,4.20
2023-03-08T05:39:39.372Z,4.21
2023-03-08T05:42:14.823Z,4.22
2023-03-08T05:44:43.974Z,4.23
2023-03-08T05:47:13.015Z,4.25
2023-03-08T05:49:39.969Z,4.26
2023-03-08T05:52:07.739Z,4.28
2023-03-08T05:54:35.137Z,4.30
2023-03-08T05:57:06.829Z,4.32
2023-03-08T05:59:34.112Z,4.35
2023-03-08T06:02:03.375Z,4.39
2023-03-08T06:04:36.135Z,4.42
2023-03-08T06:07:02.831Z,4.45
2023-03-08T06:09:35.111Z,4.50
2023-03-08T06:12:02.916Z,4.54
2023-03-08T06:14:29.978Z,4.58
2023-03-08T06:16:57.215Z,4.62
2023-03-08T06:19:29.375Z,4.66
2023-03-08T06:21:57.358Z,4.62
2023-03-08T06:24:23.913Z,4.71
2023-03-08T06:26:51.337Z,4.75
2023-03-08T06:29:17.930Z,4.79
2023-03-08T06:31:44.798Z,4.82
2023-03-08T06:34:12.621Z,4.85
2023-03-08T06:36:39.982Z,4.88
2023-03-08T06:39:06.609Z,4.93
2023-03-08T06:41:33.373Z,4.97
2023-03-08T06:44:02.074Z,5.02
2023-03-08T06:46:28.842Z,5.09
2023-03-08T06:48:55.606Z,5.18
2023-03-08T06:51:22.963Z,5.25
2023-03-08T06:53:50.158Z,5.36
2023-03-08T06:56:20.395Z,5.47
2023-03-08T06:58:46.933Z,5.57
2023-03-08T07:01:13.844Z,5.69
2023-03-08T07:03:40.500Z,5.79
2023-03-08T07:06:09.562Z,5.89
2023-03-08T07:08:37.352Z,5.98
2023-03-08T07:11:04.852Z,6.06
2023-03-08T07:13:31.531Z,6.13
2023-03-08T07:15:58.352Z,6.18
2023-03-08T07:18:25.512Z,6.26
2023-03-08T07:20:53.548Z,6.31
2023-03-08T07:23:20.004Z,6.37
2023-03-08T07:25:46.482Z,6.41
2023-03-08T07:28:13.197Z,6.47
2023-03-08T07:30:39.886Z,6.52
2023-03-08T07:33:06.748Z,6.57
2023-03-08T07:35:33.288Z,6.60
2023-03-08T07:37:59.733Z,6.66
2023-03-08T07:40:26.359Z,6.70
2023-03-08T07:42:52.892Z,6.72
2023-03-08T07:45:42.669Z,6.75
2023-03-08T07:48:09.191Z,6.78
2023-03-08T07:50:36.669Z,6.81
2023-03-08T07:53:03.314Z,6.84
2023-03-08T07:55:30.113Z,6.91
2023-03-08T07:57:56.644Z,6.95
2023-03-08T08:00:23.232Z,7.02
2023-03-08T08:02:49.772Z,7.10
2023-03-08T08:05:16.404Z,7.17
2023-03-08T08:07:46.643Z,7.24
2023-03-08T08:10:13.120Z,7.34
2023-03-08T08:12:39.919Z,7.44
2023-03-08T08:15:07.250Z,7.54
2023-03-08T08:17:33.709Z,7.63
2023-03-08T08:20:00.538Z,7.74
2023-03-08T08:22:27.010Z,7.86
2023-03-08T08:24:53.568Z,7.95
2023-03-08T08:27:20.079Z,8.07
2023-03-08T08:29:46.725Z,8.20
2023-03-08T08:32:13.257Z,8.31
2023-03-08T08:34:39.838Z,8.38
2023-03-08T08:37:06.463Z,8.52
2023-03-08T08:39:33.004Z,8.63
2023-03-08T08:41:59.605Z,8.74
2023-03-08T08:44:26.192Z,8.86
2023-03-08T08:46:52.938Z,8.93
2023-03-08T08:49:19.395Z,8.97
2023-03-08T08:51:45.960Z,9.04
2023-03-08T08:54:12.616Z,9.07
2023-03-08T08:56:39.249Z,9.07
2023-03-08T08:59:05.972Z,9.08
2023-03-08T09:01:33.649Z,9.10
2023-03-08T09:04:00.508Z,9.08
2023-03-08T09:06:28.480Z,9.14
2023-03-08T09:08:57.874Z,9.11
2023-03-08T09:11:25.506Z,9.11
2023-03-08T09:13:52.608Z,9.15
2023-03-08T09:16:23.406Z,9.16
2023-03-08T09:18:50.855Z,9.22
2023-03-08T09:21:18.083Z,9.25
2023-03-08T09:23:45.378Z,9.25
2023-03-08T09:26:12.373Z,9.26
2023-03-08T09:28:39.070Z,9.33
2023-03-08T09:31:08.272Z,9.38
2023-03-08T09:33:34.716Z,9.42
2023-03-08T09:36:01.383Z,9.44
2023-03-08T09:38:27.840Z,9.50
2023-03-08T09:41:33.103Z,9.51
2023-03-08T09:44:33.169Z,9.54
2023-03-08T09:47:13.499Z,9.56
2023-03-08T09:49:44.351Z,9.59
2023-03-08T09:52:17.666Z,9.61
2023-03-08T09:54:46.022Z,9.68
2023-03-08T09:57:24.151Z,9.70
2023-03-08T09:59:55.747Z,9.80
2023-03-08T10:02:36.250Z,9.91
2023-03-08T10:05:24.836Z,9.98
2023-03-08T10:08:00.585Z,10.06
2023-03-08T10:10:34.664Z,10.19
2023-03-08T10:13:24.296Z,10.26
2023-03-08T10:15:54.357Z,10.36
2023-03-08T10:18:39.182Z,10.42
2023-03-08T10:21:09.846Z,10.51
2023-03-08T10:23:38.369Z,10.56
2023-03-08T10:26:09.608Z,10.64
2023-03-08T10:28:36.070Z,10.65
2023-03-08T10:31:16.082Z,10.68
2023-03-08T10:33:42.669Z,10.61
2023-03-08T10:36:21.505Z,10.57
2023-03-08T10:39:00.500Z,10.51
2023-03-08T10:41:29.126Z,10.51
2023-03-08T10:43:56.463Z,10.47
2023-03-08T10:46:28.767Z,10.44
2023-03-08T10:49:05.846Z,10.43
2023-03-08T10:51:32.529Z,10.42
2023-03-08T10:54:01.651Z,10.42
2023-03-08T10:56:38.672Z,10.41
2023-03-08T10:59:07.141Z,10.40
2023-03-08T11:01:35.881Z,10.43
2023-03-08T11:04:15.039Z,10.48
2023-03-08T11:06:42.065Z,10.56
2023-03-08T11:09:38.014Z,10.62
2023-03-08T11:12:04.882Z,10.68
2023-03-08T11:14:31.504Z,10.67
2023-03-08T11:17:13.149Z,10.68
2023-03-08T11:20:01.151Z,10.71
2023-03-08T11:22:50.221Z,10.70
2023-03-08T11:25:20.152Z,10.74
2023-03-08T11:28:05.362Z,10.78
2023-03-08T11:30:43.568Z,10.79
2023-03-08T11:33:32.998Z,10.80
2023-03-08T11:36:18.241Z,10.78
2023-03-08T11:38:51.810Z,10.80
2023-03-08T11:41:29.776Z,10.78
2023-03-08T11:44:26.082Z,10.76
2023-03-08T11:47:24.041Z,10.78
2023-03-08T11:50:15.416Z,10.77
2023-03-08T11:52:53.898Z,10.78
2023-03-08T11:55:31.855Z,10.81
2023-03-08T11:58:03.942Z,10.74
2023-03-08T12:00:40.114Z,10.84
2023-03-08T12:03:18.427Z,10.88
2023-03-08T12:05:52.559Z,10.94
2023-03-08T12:08:29.865Z,10.98
2023-03-08T12:11:07.935Z,11.00
2023-03-08T12:13:39.368Z,10.94
2023-03-08T12:16:31.017Z,11.00
2023-03-08T12:19:19.872Z,11.05
2023-03-08T12:22:01.481Z,11.09
2023-03-08T12:24:52.941Z,11.14
2023-03-08T12:27:26.053Z,11.12
2023-03-08T12:30:16.357Z,11.14
2023-03-08T12:32:44.262Z,11.16
2023-03-08T12:35:22.567Z,11.20
2023-03-08T12:38:03.193Z,11.23
2023-03-08T12:40:48.258Z,11.19
2023-03-08T12:43:32.952Z,11.21
2023-03-08T12:45:59.575Z,11.29
2023-03-08T12:48:29.678Z,11.34
2023-03-08T12:51:18.500Z,11.31
2023-03-08T12:53:50.828Z,11.30
2023-03-08T12:56:29.897Z,11.33
2023-03-08T12:59:02.287Z,11.28
2023-03-08T13:01:43.806Z,11.15
2023-03-08T13:04:40.042Z,11.15
2023-03-08T13:07:21.448Z,11.14
2023-03-08T13:09:54.999Z,11.21
2023-03-08T13:12:39.849Z,11.20
2023-03-08T13:15:12.111Z,11.25
2023-03-08T13:17:41.677Z,11.24
2023-03-08T13:20:24.497Z,11.25
2023-03-08T13:23:01.611Z,11.28
2023-03-08T13:25:41.468Z,11.30
2023-03-08T13:28:46.725Z,11.27
2023-03-08T13:31:20.525Z,11.37
2023-03-08T13:33:58.247Z,11.44
2023-03-08T13:36:26.893Z,11.44
2023-03-08T13:39:02.275Z,11.47
2023-03-08T13:41:48.691Z,11.54
2023-03-08T13:44:21.226Z,11.60
2023-03-08T13:46:51.415Z,11.74
2023-03-08T13:49:27.142Z,11.85
2023-03-08T13:51:57.411Z,11.93
2023-03-08T13:54:28.603Z,12.11
2023-03-08T13:57:00.157Z,12.25
2023-03-08T13:59:27.279Z,12.33
2023-03-08T14:01:54.534Z,12.47
2023-03-08T14:04:30.944Z,12.72
2023-03-08T14:06:59.938Z,12.87
2023-03-08T14:09:27.492Z,12.98
2023-03-08T14:12:06.577Z,12.89
2023-03-08T14:14:37.032Z,13.09
2023-03-08T14:17:05.010Z,12.99
2023-03-08T14:19:36.034Z,13.03
2023-03-08T14:22:10.228Z,13.10
2023-03-08T14:24:37.212Z,13.16
2023-03-08T14:27:31.218Z,13.25
2023-03-08T14:30:17.837Z,13.18
2023-03-08T14:33:14.022Z,13.30
2023-03-08T14:35:45.184Z,13.42
2023-03-08T14:38:32.745Z,13.43
2023-03-08T14:41:03.529Z,13.40
2023-03-08T14:43:30.046Z,13.47
2023-03-08T14:46:05.434Z,13.52
2023-03-08T14:48:36.963Z,13.53
2023-03-08T14:51:25.479Z,13.56
2023-03-08T14:54:00.417Z,13.65
2023-03-08T14:56:29.212Z,13.65
2023-03-08T14:59:00.387Z,13.60
2023-03-08T15:01:32.702Z,13.68
2023-03-08T15:03:59.754Z,13.68
2023-03-08T15:06:32.917Z,13.70
2023-03-08T15:09:00.979Z,13.74
2023-03-08T15:11:28.828Z,13.56
2023-03-08T15:13:55.301Z,13.73
2023-03-08T15:16:21.855Z,13.83
2023-03-08T15:18:48.370Z,13.97
2023-03-08T15:21:20.700Z,13.93
2023-03-08T15:23:47.627Z,13.97
2023-03-08T15:26:18.308Z,14.15
2023-03-08T15:28:44.987Z,14.23
2023-03-08T15:31:11.453Z,14.20
2023-03-08T15:33:37.911Z,14.28
2023-03-08T15:36:05.270Z,14.38
2023-03-08T15:38:31.811Z,14.37
2023-03-08T15:40:58.272Z,14.38
2023-03-08T15:43:24.813Z,14.45
2023-03-08T15:45:51.299Z,14.52
2023-03-08T15:48:18.813Z,14.50
2023-03-08T15:50:45.707Z,14.50
2023-03-08T15:53:18.400Z,14.49
2023-03-08T15:55:50.065Z,14.50
2023-03-08T15:58:16.516Z,14.54
2023-03-08T16:00:43.061Z,14.47
2023-03-08T16:03:13.646Z,14.51
2023-03-08T16:05:40.499Z,14.54
2023-03-08T16:08:07.038Z,14.50
2023-03-08T16:10:35.173Z,14.59
2023-03-08T16:13:01.913Z,14.63
2023-03-08T16:15:28.428Z,14.61
2023-03-08T16:17:54.902Z,14.57
2023-03-08T16:20:21.377Z,14.51
2023-03-08T16:22:47.868Z,14.45
2023-03-08T16:25:14.352Z,14.45
2023-03-08T16:27:40.897Z,14.44
2023-03-08T16:30:08.418Z,14.40
2023-03-08T16:32:34.982Z,14.34
2023-03-08T16:35:01.515Z,14.26
2023-03-08T16:37:28.158Z,14.17
2023-03-08T16:39:55.001Z,14.16
2023-03-08T16:42:22.234Z,14.09
2023-03-08T16:44:51.493Z,13.96
2023-03-08T16:47:19.231Z,14.00
2023-03-08T16:49:46.042Z,13.92
2023-03-08T16:52:14.597Z,13.82
2023-03-08T16:54:41.262Z,13.77
2023-03-08T16:57:18.603Z,13.68
2023-03-08T16:59:45.794Z,13.57
2023-03-08T17:02:17.590Z,13.63
2023-03-08T17:04:44.339Z,13.53
2023-03-08T17:07:11.373Z,13.50
2023-03-08T17:09:39.315Z,13.49
2023-03-08T17:12:06.801Z,13.43
2023-03-08T17:14:34.839Z,13.44
2023-03-08T17:17:02.345Z,13.41
2023-03-08T17:19:28.879Z,13.34
2023-03-08T17:21:55.653Z,13.36
2023-03-08T17:24:22.733Z,13.32
2023-03-08T17:26:52.461Z,13.25
2023-03-08T17:29:19.507Z,13.23
2023-03-08T17:31:46.357Z,13.21
2023-03-08T17:34:12.826Z,13.22
2023-03-08T17:36:39.700Z,13.14
2023-03-08T17:39:06.315Z,13.10
2023-03-08T17:41:32.826Z,13.11
2023-03-08T17:43:59.385Z,13.11
2023-03-08T17:46:26.498Z,13.12
2023-03-08T17:48:54.449Z,13.12
2023-03-08T17:51:24.772Z,13.09
2023-03-08T17:53:51.551Z,13.07
2023-03-08T17:56:23.535Z,13.05
2023-03-08T17:58:50.004Z,13.07
2023-03-08T18:01:18.947Z,13.05
2023-03-08T18:03:46.393Z,13.02
2023-03-08T18:06:24.341Z,12.98
2023-03-08T18:08:51.693Z,12.97
2023-03-08T18:11:18.174Z,12.95
2023-03-08T18:13:44.976Z,12.96
2023-03-08T18:16:11.454Z,12.96
2023-03-08T18:18:38.009Z,12.95
2023-03-08T18:21:13.149Z,12.95
2023-03-08T18:23:41.524Z,12.94
2023-03-08T18:26:08.019Z,12.91
2023-03-08T18:28:34.497Z,12.87
2023-03-08T18:31:06.125Z,12.87
2023-03-08T18:33:32.708Z,12.83
2023-03-08T18:35:59.284Z,12.79
2023-03-08T18:38:25.833Z,12.76
2023-03-08T18:40:52.611Z,12.76
2023-03-08T18:43:19.191Z,12.72
2023-03-08T18:45:53.357Z,12.68
2023-03-08T18:48:21.372Z,12.69
2023-03-08T18:50:47.846Z,12.67
2023-03-08T18:53:15.027Z,12.64
2023-03-08T18:55:52.152Z,12.63
2023-03-08T18:58:18.636Z,12.61
2023-03-08T19:00:45.106Z,12.56
2023-03-08T19:03:11.739Z,12.52
2023-03-08T19:05:38.222Z,12.41
2023-03-08T19:08:04.747Z,12.42
2023-03-08T19:10:33.209Z,12.39
2023-03-08T19:12:59.788Z,12.34
2023-03-08T19:15:26.457Z,12.32
2023-03-08T19:17:57.235Z,12.27
2023-03-08T19:20:24.038Z,12.27
2023-03-08T19:22:50.672Z,12.21
2023-03-08T19:25:17.191Z,12.29
2023-03-08T19:27:43.787Z,12.18
2023-03-08T19:30:11.012Z,12.15
2023-03-08T19:32:37.621Z,12.01
2023-03-08T19:35:04.498Z,11.85
2023-03-08T19:37:31.097Z,11.75
2023-03-08T19:39:58.499Z,11.69
2023-03-08T19:42:25.776Z,11.31
2023-03-08T19:44:52.258Z,11.25
2023-03-08T19:47:19.114Z,11.17
2023-03-08T19:49:45.977Z,11.02
2023-03-08T19:52:13.305Z,10.95
2023-03-08T19:54:40.713Z,10.81
2023-03-08T19:57:07.900Z,10.69
2023-03-08T19:59:34.433Z,10.62
2023-03-08T20:02:00.921Z,10.57
2023-03-08T20:04:31.217Z,10.57
2023-03-08T20:07:01.360Z,10.55
2023-03-08T20:09:28.381Z,10.57
2023-03-08T20:11:58.463Z,10.53
2023-03-08T20:14:26.581Z,10.51
2023-03-08T20:16:53.176Z,10.48
2023-03-08T20:19:19.773Z,10.40
2023-03-08T20:21:46.593Z,10.41
2023-03-08T20:24:13.069Z,10.39
2023-03-08T20:26:39.598Z,10.21
2023-03-08T20:29:06.218Z,10.27
2023-03-08T20:31:33.040Z,10.23
2023-03-08T20:33:59.756Z,10.20
2023-03-08T20:36:26.564Z,10.20
2023-03-08T20:38:53.054Z,10.20
2023-03-08T20:41:21.171Z,10.16
2023-03-08T20:43:48.388Z,10.12
2023-03-08T20:46:17.507Z,10.14
2023-03-08T20:48:46.233Z,10.18
2023-03-08T20:51:17.689Z,10.10
2023-03-08T20:53:44.972Z,10.14
2023-03-08T20:56:16.046Z,10.08
2023-03-08T20:58:43.145Z,10.04
2023-03-08T21:01:12.407Z,10.06
2023-03-08T21:03:39.161Z,10.08
2023-03-08T21:06:23.526Z,10.08
2023-03-08T21:08:50.666Z,10.08
2023-03-08T21:11:17.811Z,10.15
2023-03-08T21:13:48.057Z,10.13
2023-03-08T21:16:16.294Z,10.18
2023-03-08T21:18:43.188Z,10.21
2023-03-08T21:21:17.808Z,10.22
2023-03-08T21:23:44.293Z,10.22
2023-03-08T21:26:12.602Z,10.26
2023-03-08T21:28:40.570Z,10.28
2023-03-08T21:31:10.998Z,10.27
2023-03-08T21:33:37.714Z,10.29
2023-03-08T21:36:04.666Z,10.28
2023-03-08T21:38:31.279Z,10.31
2023-03-08T21:40:57.817Z,10.31
2023-03-08T21:43:24.534Z,10.30
2023-03-08T21:45:51.043Z,10.28
2023-03-08T21:48:17.751Z,10.26
2023-03-08T21:50:44.576Z,10.29
2023-03-08T21:53:11.085Z,10.32
2023-03-08T21:55:41.592Z,10.31
2023-03-08T21:58:09.017Z,10.32
2023-03-08T22:00:35.694Z,10.30
2023-03-08T22:03:02.352Z,10.30
2023-03-08T22:05:30.300Z,10.31
2023-03-08T22:07:57.346Z,10.32
2023-03-08T22:10:23.898Z,10.30
2023-03-08T22:12:50.508Z,10.31
2023-03-08T22:15:17.025Z,10.28
2023-03-08T22:17:43.651Z,10.29
2023-03-08T22:20:11.079Z,10.32
2023-03-08T22:22:38.810Z,10.31
2023-03-08T22:25:07.112Z,10.31
2023-03-08T22:27:34.112Z,10.31
2023-03-08T22:30:00.739Z,10.32
2023-03-08T22:32:27.445Z,10.33
2023-03-08T22:34:54.100Z,10.28
2023-03-08T22:37:21.066Z,10.29
2023-03-08T22:39:47.683Z,10.25
2023-03-08T22:42:16.495Z,10.26
2023-03-08T22:44:43.472Z,10.25
2023-03-08T22:47:10.055Z,10.24
2023-03-08T22:49:36.672Z,10.25
2023-03-08T22:52:03.430Z,10.24
2023-03-08T22:54:30.264Z,10.23
2023-03-08T22:56:56.883Z,10.22
2023-03-08T22:59:23.576Z,10.23
2023-03-08T23:01:50.085Z,10.22
2023-03-08T23:04:16.964Z,10.20
2023-03-08T23:06:44.114Z,10.21
2023-03-08T23:09:11.566Z,10.19
2023-03-08T23:11:39.059Z,10.15
2023-03-08T23:14:09.420Z,10.11
2023-03-08T23:16:36.408Z,10.09
2023-03-08T23:19:03.587Z,10.01
2023-03-08T23:21:30.630Z,9.98
2023-03-08T23:23:57.925Z,9.91
2023-03-08T23:26:26.000Z,9.86
2023-03-08T23:28:57.547Z,9.85
2023-03-08T23:31:27.463Z,9.83
2023-03-08T23:33:54.381Z,9.82
2023-03-08T23:36:24.234Z,9.83
2023-03-08T23:38:51.567Z,9.83
2023-03-08T23:41:18.240Z,9.77
2023-03-08T23:43:45.565Z,9.79
2023-03-08T23:46:14.856Z,9.71
2023-03-08T23:48:41.964Z,9.77
2023-03-08T23:51:12.464Z,9.77
2023-03-08T23:53:39.361Z,9.76
2023-03-08T23:56:06.868Z,9.82
2023-03-08T23:58:33.592Z,9.80
